sensor_id;sensor_type;location;lat;lon;timestamp;temperature;humidity
9971;DHT22;5026;51.494;11.974;2022-08-21T00:01:25;18.70;99.90
9971;DHT22;5026;51.494;11.974;2022-08-21T00:06:20;18.70;99.90
9971;DHT22;5026;51.494;11.974;2022-08-21T00:08:50;18.70;99.90
9971;DHT22;5026;51.494;11.974;2022-08-21T00:11:17;18.70;99.90
9971;DHT22;5026;51.494;11.974;2022-08-21T00:13:44;18.60;99.90
9971;DHT22;5026;51.494;11.974;2022-08-21T00:16:11;18.60;99.90
9971;DHT22;5026;51.494;11.974;2022-08-21T00:18:38;18.60;99.90
9971;DHT22;5026;51.494;11.974;2022-08-21T00:21:06;18.50;99.90
9971;DHT22;5026;51.494;11.974;2022-08-21T00:23:34;18.50;99.90
9971;DHT22;5026;51.494;11.974;2022-08-21T00:26:02;18.50;99.90
9971;DHT22;5026;51.494;11.974;2022-08-21T00:28:29;18.40;99.90
9971;DHT22;5026;51.494;11.974;2022-08-21T00:30:56;18.30;99.90
9971;DHT22;5026;51.494;11.974;2022-08-21T00:33:24;18.40;99.90
9971;DHT22;5026;51.494;11.974;2022-08-21T00:35:51;18.40;99.90
9971;DHT22;5026;51.494;11.974;2022-08-21T00:38:18;18.40;99.90
9971;DHT22;5026;51.494;11.974;2022-08-21T00:40:48;18.40;99.90
9971;DHT22;5026;51.494;11.974;2022-08-21T00:43:18;18.50;99.90
9971;DHT22;5026;51.494;11.974;2022-08-21T00:45:46;18.50;99.90
9971;DHT22;5026;51.494;11.974;2022-08-21T00:48:13;18.60;99.90
9971;DHT22;5026;51.494;11.974;2022-08-21T00:50:43;18.60;99.90
9971;DHT22;5026;51.494;11.974;2022-08-21T00:53:11;18.60;99.90
9971;DHT22;5026;51.494;11.974;2022-08-21T00:55:39;18.60;99.90
9971;DHT22;5026;51.494;11.974;2022-08-21T00:58:08;18.60;99.90
9971;DHT22;5026;51.494;11.974;2022-08-21T01:00:40;18.60;99.90
9971;DHT22;5026;51.494;11.974;2022-08-21T01:03:09;18.60;99.90
9971;DHT22;5026;51.494;11.974;2022-08-21T01:05:37;18.50;99.90
9971;DHT22;5026;51.494;11.974;2022-08-21T01:08:04;18.50;99.90
9971;DHT22;5026;51.494;11.974;2022-08-21T01:10:33;18.50;99.90
9971;DHT22;5026;51.494;11.974;2022-08-21T01:13:01;18.50;99.90
9971;DHT22;5026;51.494;11.974;2022-08-21T01:15:32;18.50;99.90
9971;DHT22;5026;51.494;11.974;2022-08-21T01:18:03;18.50;99.90
9971;DHT22;5026;51.494;11.974;2022-08-21T01:20:30;18.50;99.90
9971;DHT22;5026;51.494;11.974;2022-08-21T01:22:58;18.50;99.90
9971;DHT22;5026;51.494;11.974;2022-08-21T01:25:25;18.40;99.90
9971;DHT22;5026;51.494;11.974;2022-08-21T01:27:52;18.30;99.90
9971;DHT22;5026;51.494;11.974;2022-08-21T01:30:23;18.30;99.90
9971;DHT22;5026;51.494;11.974;2022-08-21T01:32:51;18.30;99.90
9971;DHT22;5026;51.494;11.974;2022-08-21T01:35:20;18.10;99.90
9971;DHT22;5026;51.494;11.974;2022-08-21T01:37:47;18.10;99.90
9971;DHT22;5026;51.494;11.974;2022-08-21T01:40:17;18.10;99.90
9971;DHT22;5026;51.494;11.974;2022-08-21T01:42:45;18.00;99.90
9971;DHT22;5026;51.494;11.974;2022-08-21T01:45:13;17.90;99.90
9971;DHT22;5026;51.494;11.974;2022-08-21T01:47:40;17.90;99.90
9971;DHT22;5026;51.494;11.974;2022-08-21T01:50:10;17.80;99.90
9971;DHT22;5026;51.494;11.974;2022-08-21T01:52:38;17.80;99.90
9971;DHT22;5026;51.494;11.974;2022-08-21T01:55:06;17.80;99.90
9971;DHT22;5026;51.494;11.974;2022-08-21T01:57:36;17.80;99.90
9971;DHT22;5026;51.494;11.974;2022-08-21T02:00:04;17.80;99.90
9971;DHT22;5026;51.494;11.974;2022-08-21T02:02:31;17.80;99.90
9971;DHT22;5026;51.494;11.974;2022-08-21T02:04:58;17.80;99.90
9971;DHT22;5026;51.494;11.974;2022-08-21T02:07:25;17.80;99.90
9971;DHT22;5026;51.494;11.974;2022-08-21T02:09:52;17.80;99.90
9971;DHT22;5026;51.494;11.974;2022-08-21T02:12:20;17.80;99.90
9971;DHT22;5026;51.494;11.974;2022-08-21T02:14:48;17.80;99.90
9971;DHT22;5026;51.494;11.974;2022-08-21T02:17:15;17.70;99.90
9971;DHT22;5026;51.494;11.974;2022-08-21T02:19:41;17.70;99.90
9971;DHT22;5026;51.494;11.974;2022-08-21T02:22:09;17.70;99.90
9971;DHT22;5026;51.494;11.974;2022-08-21T02:24:36;17.60;99.90
9971;DHT22;5026;51.494;11.974;2022-08-21T02:27:04;17.60;99.90
9971;DHT22;5026;51.494;11.974;2022-08-21T02:29:30;17.60;99.90
9971;DHT22;5026;51.494;11.974;2022-08-21T02:31:59;17.60;99.90
9971;DHT22;5026;51.494;11.974;2022-08-21T02:34:26;17.70;99.90
9971;DHT22;5026;51.494;11.974;2022-08-21T02:36:52;17.70;99.90
9971;DHT22;5026;51.494;11.974;2022-08-21T02:39:19;17.70;99.90
9971;DHT22;5026;51.494;11.974;2022-08-21T02:41:46;17.70;99.90
9971;DHT22;5026;51.494;11.974;2022-08-21T02:44:13;17.80;99.90
9971;DHT22;5026;51.494;11.974;2022-08-21T02:46:40;17.80;99.90
9971;DHT22;5026;51.494;11.974;2022-08-21T02:49:08;17.80;99.90
9971;DHT22;5026;51.494;11.974;2022-08-21T02:51:35;17.80;99.90
9971;DHT22;5026;51.494;11.974;2022-08-21T02:54:02;17.80;99.90
9971;DHT22;5026;51.494;11.974;2022-08-21T02:56:29;17.90;99.90
9971;DHT22;5026;51.494;11.974;2022-08-21T02:58:56;17.90;99.90
9971;DHT22;5026;51.494;11.974;2022-08-21T03:01:23;17.80;99.90
9971;DHT22;5026;51.494;11.974;2022-08-21T03:03:50;17.80;99.90
9971;DHT22;5026;51.494;11.974;2022-08-21T03:06:20;17.80;99.90
9971;DHT22;5026;51.494;11.974;2022-08-21T03:11:15;17.80;99.90
9971;DHT22;5026;51.494;11.974;2022-08-21T03:13:43;17.70;99.90
9971;DHT22;5026;51.494;11.974;2022-08-21T03:16:10;17.50;99.90
9971;DHT22;5026;51.494;11.974;2022-08-21T03:18:37;17.60;99.90
9971;DHT22;5026;51.494;11.974;2022-08-21T03:21:04;17.60;99.90
9971;DHT22;5026;51.494;11.974;2022-08-21T03:23:33;17.70;99.90
9971;DHT22;5026;51.494;11.974;2022-08-21T03:25:59;17.50;99.90
9971;DHT22;5026;51.494;11.974;2022-08-21T03:28:27;17.50;99.90
9971;DHT22;5026;51.494;11.974;2022-08-21T03:30:54;17.50;99.90
9971;DHT22;5026;51.494;11.974;2022-08-21T03:33:21;17.50;99.90
9971;DHT22;5026;51.494;11.974;2022-08-21T03:35:54;17.50;99.90
9971;DHT22;5026;51.494;11.974;2022-08-21T03:38:22;17.60;99.90
9971;DHT22;5026;51.494;11.974;2022-08-21T03:40:50;17.50;99.90
9971;DHT22;5026;51.494;11.974;2022-08-21T03:43:17;17.50;99.90
9971;DHT22;5026;51.494;11.974;2022-08-21T03:45:44;17.50;99.90
9971;DHT22;5026;51.494;11.974;2022-08-21T03:48:11;17.40;99.90
9971;DHT22;5026;51.494;11.974;2022-08-21T03:50:42;17.40;99.90
9971;DHT22;5026;51.494;11.974;2022-08-21T03:53:11;17.40;99.90
9971;DHT22;5026;51.494;11.974;2022-08-21T03:55:38;17.30;99.90
9971;DHT22;5026;51.494;11.974;2022-08-21T03:58:06;17.30;99.90
9971;DHT22;5026;51.494;11.974;2022-08-21T04:00:33;17.20;99.90
9971;DHT22;5026;51.494;11.974;2022-08-21T04:03:00;17.20;99.90
9971;DHT22;5026;51.494;11.974;2022-08-21T04:05:27;17.10;99.90
9971;DHT22;5026;51.494;11.974;2022-08-21T04:07:56;17.10;99.90
9971;DHT22;5026;51.494;11.974;2022-08-21T04:10:24;17.00;99.90
9971;DHT22;5026;51.494;11.974;2022-08-21T04:12:51;17.00;99.90
9971;DHT22;5026;51.494;11.974;2022-08-21T04:15:21;17.00;99.90
9971;DHT22;5026;51.494;11.974;2022-08-21T04:20:16;16.90;99.90
9971;DHT22;5026;51.494;11.974;2022-08-21T04:22:43;16.90;99.90
9971;DHT22;5026;51.494;11.974;2022-08-21T04:25:12;16.90;99.90
9971;DHT22;5026;51.494;11.974;2022-08-21T04:27:39;16.90;99.90
9971;DHT22;5026;51.494;11.974;2022-08-21T04:30:08;16.90;99.90
9971;DHT22;5026;51.494;11.974;2022-08-21T04:32:37;17.00;99.90
9971;DHT22;5026;51.494;11.974;2022-08-21T04:35:07;17.00;99.90
9971;DHT22;5026;51.494;11.974;2022-08-21T04:37:35;17.00;99.90
9971;DHT22;5026;51.494;11.974;2022-08-21T04:40:02;17.00;99.90
9971;DHT22;5026;51.494;11.974;2022-08-21T04:42:29;17.10;99.90
9971;DHT22;5026;51.494;11.974;2022-08-21T04:44:56;17.10;99.90
9971;DHT22;5026;51.494;11.974;2022-08-21T04:47:23;17.20;99.90
9971;DHT22;5026;51.494;11.974;2022-08-21T04:49:52;17.20;99.90
9971;DHT22;5026;51.494;11.974;2022-08-21T04:52:21;17.30;99.90
9971;DHT22;5026;51.494;11.974;2022-08-21T04:54:50;17.30;99.90
9971;DHT22;5026;51.494;11.974;2022-08-21T04:57:19;17.40;99.90
9971;DHT22;5026;51.494;11.974;2022-08-21T04:59:47;17.40;99.90
9971;DHT22;5026;51.494;11.974;2022-08-21T05:02:14;17.50;99.90
9971;DHT22;5026;51.494;11.974;2022-08-21T05:04:45;17.50;99.90
9971;DHT22;5026;51.494;11.974;2022-08-21T05:07:16;17.60;99.90
9971;DHT22;5026;51.494;11.974;2022-08-21T05:09:45;17.70;99.90
9971;DHT22;5026;51.494;11.974;2022-08-21T05:12:12;17.70;99.90
9971;DHT22;5026;51.494;11.974;2022-08-21T05:14:40;17.80;99.90
9971;DHT22;5026;51.494;11.974;2022-08-21T05:17:07;17.90;99.90
9971;DHT22;5026;51.494;11.974;2022-08-21T05:22:02;18.10;99.90
9971;DHT22;5026;51.494;11.974;2022-08-21T05:24:30;18.20;99.90
9971;DHT22;5026;51.494;11.974;2022-08-21T05:26:57;18.30;99.90
9971;DHT22;5026;51.494;11.974;2022-08-21T05:29:24;18.30;99.90
9971;DHT22;5026;51.494;11.974;2022-08-21T05:31:51;18.40;99.90
9971;DHT22;5026;51.494;11.974;2022-08-21T05:34:21;18.40;99.90
9971;DHT22;5026;51.494;11.974;2022-08-21T05:36:48;18.50;99.90
9971;DHT22;5026;51.494;11.974;2022-08-21T05:39:16;18.60;99.90
9971;DHT22;5026;51.494;11.974;2022-08-21T05:41:44;18.60;99.90
9971;DHT22;5026;51.494;11.974;2022-08-21T05:44:11;18.90;99.90
9971;DHT22;5026;51.494;11.974;2022-08-21T05:46:38;19.00;99.90
9971;DHT22;5026;51.494;11.974;2022-08-21T05:49:05;19.10;99.90
9971;DHT22;5026;51.494;11.974;2022-08-21T05:51:32;19.30;99.90
9971;DHT22;5026;51.494;11.974;2022-08-21T05:53:59;19.40;99.90
9971;DHT22;5026;51.494;11.974;2022-08-21T05:56:25;19.70;99.90
9971;DHT22;5026;51.494;11.974;2022-08-21T05:58:54;19.90;99.90
9971;DHT22;5026;51.494;11.974;2022-08-21T06:01:21;20.20;99.90
9971;DHT22;5026;51.494;11.974;2022-08-21T06:03:48;20.50;99.90
9971;DHT22;5026;51.494;11.974;2022-08-21T06:06:15;20.40;99.90
9971;DHT22;5026;51.494;11.974;2022-08-21T06:08:42;20.40;99.90
9971;DHT22;5026;51.494;11.974;2022-08-21T06:11:09;20.30;99.90
9971;DHT22;5026;51.494;11.974;2022-08-21T06:13:36;20.20;99.90
9971;DHT22;5026;51.494;11.974;2022-08-21T06:16:07;20.10;99.90
9971;DHT22;5026;51.494;11.974;2022-08-21T06:18:35;20.30;99.90
9971;DHT22;5026;51.494;11.974;2022-08-21T06:21:03;20.60;99.90
9971;DHT22;5026;51.494;11.974;2022-08-21T06:23:30;21.10;99.90
9971;DHT22;5026;51.494;11.974;2022-08-21T06:25:57;21.20;99.90
9971;DHT22;5026;51.494;11.974;2022-08-21T06:28:24;21.50;99.80
9971;DHT22;5026;51.494;11.974;2022-08-21T06:30:51;21.90;99.20
9971;DHT22;5026;51.494;11.974;2022-08-21T06:33:19;21.80;99.00
9971;DHT22;5026;51.494;11.974;2022-08-21T06:35:46;21.70;98.70
9971;DHT22;5026;51.494;11.974;2022-08-21T06:38:13;21.90;98.30
9971;DHT22;5026;51.494;11.974;2022-08-21T06:40:40;22.00;98.20
9971;DHT22;5026;51.494;11.974;2022-08-21T06:43:10;22.30;98.10
9971;DHT22;5026;51.494;11.974;2022-08-21T06:45:37;22.20;97.60
9971;DHT22;5026;51.494;11.974;2022-08-21T06:48:05;22.10;97.60
9971;DHT22;5026;51.494;11.974;2022-08-21T06:50:34;21.90;97.60
9971;DHT22;5026;51.494;11.974;2022-08-21T06:53:06;22.00;97.80
9971;DHT22;5026;51.494;11.974;2022-08-21T06:55:33;22.50;97.60
9971;DHT22;5026;51.494;11.974;2022-08-21T06:58:01;22.90;97.10
9971;DHT22;5026;51.494;11.974;2022-08-21T07:00:28;23.20;96.40
9971;DHT22;5026;51.494;11.974;2022-08-21T07:02:55;23.40;96.20
9971;DHT22;5026;51.494;11.974;2022-08-21T07:05:25;23.20;95.60
9971;DHT22;5026;51.494;11.974;2022-08-21T07:07:53;22.90;95.60
9971;DHT22;5026;51.494;11.974;2022-08-21T07:10:20;22.80;96.00
9971;DHT22;5026;51.494;11.974;2022-08-21T07:12:47;22.60;95.90
9971;DHT22;5026;51.494;11.974;2022-08-21T07:15:14;22.70;96.20
9971;DHT22;5026;51.494;11.974;2022-08-21T07:17:41;22.90;96.00
9971;DHT22;5026;51.494;11.974;2022-08-21T07:20:08;23.10;95.60
9971;DHT22;5026;51.494;11.974;2022-08-21T07:22:36;24.20;95.20
9971;DHT22;5026;51.494;11.974;2022-08-21T07:25:06;25.20;94.40
9971;DHT22;5026;51.494;11.974;2022-08-21T07:27:33;26.60;93.20
9971;DHT22;5026;51.494;11.974;2022-08-21T07:30:00;27.20;91.60
9971;DHT22;5026;51.494;11.974;2022-08-21T07:32:27;26.50;90.90
9971;DHT22;5026;51.494;11.974;2022-08-21T07:34:54;25.60;91.30
9971;DHT22;5026;51.494;11.974;2022-08-21T07:37:21;25.10;91.90
9971;DHT22;5026;51.494;11.974;2022-08-21T07:39:48;24.80;92.40
9971;DHT22;5026;51.494;11.974;2022-08-21T07:42:17;24.80;92.50
9971;DHT22;5026;51.494;11.974;2022-08-21T07:44:44;24.80;92.30
9971;DHT22;5026;51.494;11.974;2022-08-21T07:47:11;25.00;92.20
9971;DHT22;5026;51.494;11.974;2022-08-21T07:49:38;24.90;91.90
9971;DHT22;5026;51.494;11.974;2022-08-21T07:52:05;25.00;92.10
9971;DHT22;5026;51.494;11.974;2022-08-21T07:54:32;24.90;92.10
9971;DHT22;5026;51.494;11.974;2022-08-21T07:56:59;24.60;91.90
9971;DHT22;5026;51.494;11.974;2022-08-21T07:59:27;24.40;92.00
9971;DHT22;5026;51.494;11.974;2022-08-21T08:01:55;24.30;92.10
9971;DHT22;5026;51.494;11.974;2022-08-21T08:04:22;24.20;91.90
9971;DHT22;5026;51.494;11.974;2022-08-21T08:06:48;24.20;91.10
9971;DHT22;5026;51.494;11.974;2022-08-21T08:09:15;25.60;90.70
9971;DHT22;5026;51.494;11.974;2022-08-21T08:11:43;28.20;88.70
9971;DHT22;5026;51.494;11.974;2022-08-21T08:14:10;28.00;85.10
9971;DHT22;5026;51.494;11.974;2022-08-21T08:16:39;28.70;85.10
9971;DHT22;5026;51.494;11.974;2022-08-21T08:19:06;31.20;82.50
9971;DHT22;5026;51.494;11.974;2022-08-21T08:21:33;32.20;77.40
9971;DHT22;5026;51.494;11.974;2022-08-21T08:24:01;33.40;74.10
9971;DHT22;5026;51.494;11.974;2022-08-21T08:26:28;34.80;70.70
9971;DHT22;5026;51.494;11.974;2022-08-21T08:28:55;35.00;67.10
9971;DHT22;5026;51.494;11.974;2022-08-21T08:31:22;36.10;64.00
9971;DHT22;5026;51.494;11.974;2022-08-21T08:33:50;36.80;62.10
9971;DHT22;5026;51.494;11.974;2022-08-21T08:36:18;36.50;61.50
9971;DHT22;5026;51.494;11.974;2022-08-21T08:38:46;35.30;60.20
9971;DHT22;5026;51.494;11.974;2022-08-21T08:41:14;33.20;61.70
9971;DHT22;5026;51.494;11.974;2022-08-21T08:43:47;32.40;62.40
9971;DHT22;5026;51.494;11.974;2022-08-21T08:46:18;32.70;63.00
9971;DHT22;5026;51.494;11.974;2022-08-21T08:48:50;32.20;61.10
9971;DHT22;5026;51.494;11.974;2022-08-21T08:51:22;33.20;61.50
9971;DHT22;5026;51.494;11.974;2022-08-21T08:53:54;33.70;61.40
9971;DHT22;5026;51.494;11.974;2022-08-21T08:56:28;34.50;61.00
9971;DHT22;5026;51.494;11.974;2022-08-21T08:59:00;33.00;61.60
9971;DHT22;5026;51.494;11.974;2022-08-21T09:01:28;34.40;60.70
9971;DHT22;5026;51.494;11.974;2022-08-21T09:03:56;35.70;58.90
9971;DHT22;5026;51.494;11.974;2022-08-21T09:06:51;35.80;56.50
9971;DHT22;5026;51.494;11.974;2022-08-21T09:09:28;35.00;56.00
9971;DHT22;5026;51.494;11.974;2022-08-21T09:12:02;34.10;56.10
9971;DHT22;5026;51.494;11.974;2022-08-21T09:14:52;34.10;55.10
9971;DHT22;5026;51.494;11.974;2022-08-21T09:17:39;33.40;53.50
9971;DHT22;5026;51.494;11.974;2022-08-21T09:20:18;33.10;53.70
9971;DHT22;5026;51.494;11.974;2022-08-21T09:23:00;31.60;54.20
9971;DHT22;5026;51.494;11.974;2022-08-21T09:25:34;30.40;55.30
9971;DHT22;5026;51.494;11.974;2022-08-21T09:28:07;28.20;56.80
9971;DHT22;5026;51.494;11.974;2022-08-21T09:30:34;26.70;60.30
9971;DHT22;5026;51.494;11.974;2022-08-21T09:33:01;27.50;61.20
9971;DHT22;5026;51.494;11.974;2022-08-21T09:35:29;28.10;60.80
9971;DHT22;5026;51.494;11.974;2022-08-21T09:37:59;26.40;61.20
9971;DHT22;5026;51.494;11.974;2022-08-21T09:40:32;27.20;62.40
9971;DHT22;5026;51.494;11.974;2022-08-21T09:43:01;27.40;61.50
9971;DHT22;5026;51.494;11.974;2022-08-21T09:45:30;28.10;61.60
9971;DHT22;5026;51.494;11.974;2022-08-21T09:48:08;28.60;60.80
9971;DHT22;5026;51.494;11.974;2022-08-21T09:50:36;29.00;60.80
9971;DHT22;5026;51.494;11.974;2022-08-21T09:53:04;28.70;60.30
9971;DHT22;5026;51.494;11.974;2022-08-21T09:55:34;28.00;60.50
9971;DHT22;5026;51.494;11.974;2022-08-21T09:58:30;28.20;61.20
9971;DHT22;5026;51.494;11.974;2022-08-21T10:00:59;28.10;60.50
9971;DHT22;5026;51.494;11.974;2022-08-21T10:03:27;28.10;60.30
9971;DHT22;5026;51.494;11.974;2022-08-21T10:05:58;27.40;61.30
9971;DHT22;5026;51.494;11.974;2022-08-21T10:08:26;27.40;62.00
9971;DHT22;5026;51.494;11.974;2022-08-21T10:10:57;27.00;62.40
9971;DHT22;5026;51.494;11.974;2022-08-21T10:13:33;27.20;63.00
9971;DHT22;5026;51.494;11.974;2022-08-21T10:16:15;27.40;62.70
9971;DHT22;5026;51.494;11.974;2022-08-21T10:18:52;27.80;62.20
9971;DHT22;5026;51.494;11.974;2022-08-21T10:21:28;25.20;62.70
9971;DHT22;5026;51.494;11.974;2022-08-21T10:24:05;24.80;64.50
9971;DHT22;5026;51.494;11.974;2022-08-21T10:26:44;25.30;64.40
9971;DHT22;5026;51.494;11.974;2022-08-21T10:29:38;25.40;64.90
9971;DHT22;5026;51.494;11.974;2022-08-21T10:32:20;26.30;65.10
9971;DHT22;5026;51.494;11.974;2022-08-21T10:34:57;26.60;64.10
9971;DHT22;5026;51.494;11.974;2022-08-21T10:37:35;26.60;63.60
9971;DHT22;5026;51.494;11.974;2022-08-21T10:40:16;26.20;63.40
9971;DHT22;5026;51.494;11.974;2022-08-21T10:42:56;25.60;64.00
9971;DHT22;5026;51.494;11.974;2022-08-21T10:45:37;25.90;65.00
9971;DHT22;5026;51.494;11.974;2022-08-21T10:48:07;26.20;64.60
9971;DHT22;5026;51.494;11.974;2022-08-21T10:50:43;26.20;64.30
9971;DHT22;5026;51.494;11.974;2022-08-21T10:53:19;24.20;65.90
9971;DHT22;5026;51.494;11.974;2022-08-21T10:55:54;24.30;66.40
9971;DHT22;5026;51.494;11.974;2022-08-21T10:58:30;24.80;66.40
9971;DHT22;5026;51.494;11.974;2022-08-21T11:01:11;25.50;66.30
9971;DHT22;5026;51.494;11.974;2022-08-21T11:03:43;25.30;65.20
9971;DHT22;5026;51.494;11.974;2022-08-21T11:06:13;25.60;65.50
9971;DHT22;5026;51.494;11.974;2022-08-21T11:08:44;25.70;65.70
9971;DHT22;5026;51.494;11.974;2022-08-21T11:11:18;26.00;66.00
9971;DHT22;5026;51.494;11.974;2022-08-21T11:13:49;26.10;66.20
9971;DHT22;5026;51.494;11.974;2022-08-21T11:16:23;26.10;66.30
9971;DHT22;5026;51.494;11.974;2022-08-21T11:18:57;26.50;66.80
9971;DHT22;5026;51.494;11.974;2022-08-21T11:21:36;26.90;65.60
9971;DHT22;5026;51.494;11.974;2022-08-21T11:24:22;26.20;65.50
9971;DHT22;5026;51.494;11.974;2022-08-21T11:26:57;26.20;65.80
9971;DHT22;5026;51.494;11.974;2022-08-21T11:29:28;25.70;66.40
9971;DHT22;5026;51.494;11.974;2022-08-21T11:32:13;25.20;66.40
9971;DHT22;5026;51.494;11.974;2022-08-21T11:34:53;25.10;67.10
9971;DHT22;5026;51.494;11.974;2022-08-21T11:37:43;25.70;67.10
9971;DHT22;5026;51.494;11.974;2022-08-21T11:40:36;25.40;67.00
9971;DHT22;5026;51.494;11.974;2022-08-21T11:43:12;25.20;67.10
9971;DHT22;5026;51.494;11.974;2022-08-21T11:45:45;24.90;67.00
9971;DHT22;5026;51.494;11.974;2022-08-21T11:48:25;24.10;67.30
9971;DHT22;5026;51.494;11.974;2022-08-21T11:50:56;23.80;67.80
9971;DHT22;5026;51.494;11.974;2022-08-21T11:53:28;24.30;68.30
9971;DHT22;5026;51.494;11.974;2022-08-21T11:56:02;24.30;68.70
9971;DHT22;5026;51.494;11.974;2022-08-21T11:58:32;24.70;68.50
9971;DHT22;5026;51.494;11.974;2022-08-21T12:01:06;25.00;68.80
9971;DHT22;5026;51.494;11.974;2022-08-21T12:03:35;24.20;67.20
9971;DHT22;5026;51.494;11.974;2022-08-21T12:06:06;23.40;65.60
9971;DHT22;5026;51.494;11.974;2022-08-21T12:08:35;25.00;67.30
9971;DHT22;5026;51.494;11.974;2022-08-21T12:11:06;25.00;67.80
9971;DHT22;5026;51.494;11.974;2022-08-21T12:13:36;25.00;67.80
9971;DHT22;5026;51.494;11.974;2022-08-21T12:16:08;24.90;68.30
9971;DHT22;5026;51.494;11.974;2022-08-21T12:18:36;24.80;68.40
9971;DHT22;5026;51.494;11.974;2022-08-21T12:21:16;24.90;69.20
9971;DHT22;5026;51.494;11.974;2022-08-21T12:23:46;25.00;68.10
9971;DHT22;5026;51.494;11.974;2022-08-21T12:26:24;25.30;68.20
9971;DHT22;5026;51.494;11.974;2022-08-21T12:29:04;25.70;68.20
9971;DHT22;5026;51.494;11.974;2022-08-21T12:31:31;25.90;67.90
9971;DHT22;5026;51.494;11.974;2022-08-21T12:33:59;25.60;67.10
9971;DHT22;5026;51.494;11.974;2022-08-21T12:36:40;25.80;67.60
9971;DHT22;5026;51.494;11.974;2022-08-21T12:39:13;26.10;67.30
9971;DHT22;5026;51.494;11.974;2022-08-21T12:41:47;26.30;67.40
9971;DHT22;5026;51.494;11.974;2022-08-21T12:44:17;26.60;67.50
9971;DHT22;5026;51.494;11.974;2022-08-21T12:46:48;26.70;66.90
9971;DHT22;5026;51.494;11.974;2022-08-21T12:49:21;27.20;66.60
9971;DHT22;5026;51.494;11.974;2022-08-21T12:51:55;27.60;66.00
9971;DHT22;5026;51.494;11.974;2022-08-21T12:54:26;27.70;65.50
9971;DHT22;5026;51.494;11.974;2022-08-21T12:56:59;27.80;65.50
9971;DHT22;5026;51.494;11.974;2022-08-21T12:59:27;27.50;64.50
9971;DHT22;5026;51.494;11.974;2022-08-21T13:01:55;27.20;65.80
9971;DHT22;5026;51.494;11.974;2022-08-21T13:04:31;27.10;66.20
9971;DHT22;5026;51.494;11.974;2022-08-21T13:07:00;26.90;65.20
9971;DHT22;5026;51.494;11.974;2022-08-21T13:09:29;26.70;65.90
9971;DHT22;5026;51.494;11.974;2022-08-21T13:11:59;26.70;65.80
9971;DHT22;5026;51.494;11.974;2022-08-21T13:14:30;26.70;65.70
9971;DHT22;5026;51.494;11.974;2022-08-21T13:16:59;27.00;65.50
9971;DHT22;5026;51.494;11.974;2022-08-21T13:19:26;27.20;65.30
9971;DHT22;5026;51.494;11.974;2022-08-21T13:21:55;27.30;65.50
9971;DHT22;5026;51.494;11.974;2022-08-21T13:24:24;27.10;65.40
9971;DHT22;5026;51.494;11.974;2022-08-21T13:26:52;27.40;65.90
9971;DHT22;5026;51.494;11.974;2022-08-21T13:29:26;27.50;64.70
9971;DHT22;5026;51.494;11.974;2022-08-21T13:32:01;27.30;64.70
9971;DHT22;5026;51.494;11.974;2022-08-21T13:34:31;27.50;64.70
9971;DHT22;5026;51.494;11.974;2022-08-21T13:37:00;27.70;64.30
9971;DHT22;5026;51.494;11.974;2022-08-21T13:39:28;27.70;64.40
9971;DHT22;5026;51.494;11.974;2022-08-21T13:42:00;28.10;65.50
9971;DHT22;5026;51.494;11.974;2022-08-21T13:44:35;28.20;64.40
9971;DHT22;5026;51.494;11.974;2022-08-21T13:47:04;27.80;64.30
9971;DHT22;5026;51.494;11.974;2022-08-21T13:49:34;27.90;64.00
9971;DHT22;5026;51.494;11.974;2022-08-21T13:52:03;27.20;63.80
9971;DHT22;5026;51.494;11.974;2022-08-21T13:54:34;26.40;65.10
9971;DHT22;5026;51.494;11.974;2022-08-21T13:57:02;26.30;65.30
9971;DHT22;5026;51.494;11.974;2022-08-21T13:59:32;25.60;66.60
9971;DHT22;5026;51.494;11.974;2022-08-21T14:02:01;25.60;66.60
9971;DHT22;5026;51.494;11.974;2022-08-21T14:04:36;25.20;67.20
9971;DHT22;5026;51.494;11.974;2022-08-21T14:07:15;25.40;67.60
9971;DHT22;5026;51.494;11.974;2022-08-21T14:09:44;25.40;67.80
9971;DHT22;5026;51.494;11.974;2022-08-21T14:12:15;25.00;66.10
9971;DHT22;5026;51.494;11.974;2022-08-21T14:14:44;24.90;67.00
9971;DHT22;5026;51.494;11.974;2022-08-21T14:17:14;24.90;67.50
9971;DHT22;5026;51.494;11.974;2022-08-21T14:19:52;25.20;68.20
9971;DHT22;5026;51.494;11.974;2022-08-21T14:22:27;25.30;67.80
9971;DHT22;5026;51.494;11.974;2022-08-21T14:25:00;24.50;67.70
9971;DHT22;5026;51.494;11.974;2022-08-21T14:27:29;24.20;68.10
9971;DHT22;5026;51.494;11.974;2022-08-21T14:30:08;24.20;68.40
9971;DHT22;5026;51.494;11.974;2022-08-21T14:32:38;24.10;68.40
9971;DHT22;5026;51.494;11.974;2022-08-21T14:35:06;27.20;70.30
9971;DHT22;5026;51.494;11.974;2022-08-21T14:37:34;24.10;68.90
9971;DHT22;5026;51.494;11.974;2022-08-21T14:40:02;24.20;68.80
9971;DHT22;5026;51.494;11.974;2022-08-21T14:42:29;24.10;69.20
9971;DHT22;5026;51.494;11.974;2022-08-21T14:44:59;24.30;69.00
9971;DHT22;5026;51.494;11.974;2022-08-21T14:47:27;24.10;68.70
9971;DHT22;5026;51.494;11.974;2022-08-21T14:49:55;23.90;68.80
9971;DHT22;5026;51.494;11.974;2022-08-21T14:54:49;23.80;69.20
9971;DHT22;5026;51.494;11.974;2022-08-21T14:57:16;23.90;69.10
9971;DHT22;5026;51.494;11.974;2022-08-21T14:59:44;23.90;69.20
9971;DHT22;5026;51.494;11.974;2022-08-21T15:02:11;23.80;69.50
9971;DHT22;5026;51.494;11.974;2022-08-21T15:04:39;23.80;70.10
9971;DHT22;5026;51.494;11.974;2022-08-21T15:07:07;23.80;69.50
9971;DHT22;5026;51.494;11.974;2022-08-21T15:09:34;23.80;70.30
9971;DHT22;5026;51.494;11.974;2022-08-21T15:12:02;25.00;70.80
9971;DHT22;5026;51.494;11.974;2022-08-21T15:14:32;24.10;70.20
9971;DHT22;5026;51.494;11.974;2022-08-21T15:17:00;24.00;70.00
9971;DHT22;5026;51.494;11.974;2022-08-21T15:19:29;24.00;69.10
9971;DHT22;5026;51.494;11.974;2022-08-21T15:21:57;23.80;69.20
9971;DHT22;5026;51.494;11.974;2022-08-21T15:24:24;23.80;69.50
9971;DHT22;5026;51.494;11.974;2022-08-21T15:26:52;23.90;69.50
9971;DHT22;5026;51.494;11.974;2022-08-21T15:29:20;24.00;69.50
9971;DHT22;5026;51.494;11.974;2022-08-21T15:31:53;24.10;69.80
9971;DHT22;5026;51.494;11.974;2022-08-21T15:34:20;24.10;69.70
9971;DHT22;5026;51.494;11.974;2022-08-21T15:36:48;24.20;70.00
9971;DHT22;5026;51.494;11.974;2022-08-21T15:39:16;24.10;69.90
9971;DHT22;5026;51.494;11.974;2022-08-21T15:41:44;24.30;69.50
9971;DHT22;5026;51.494;11.974;2022-08-21T15:44:12;24.20;69.50
9971;DHT22;5026;51.494;11.974;2022-08-21T15:46:39;24.20;70.20
9971;DHT22;5026;51.494;11.974;2022-08-21T15:49:07;24.10;69.80
9971;DHT22;5026;51.494;11.974;2022-08-21T15:51:34;24.10;70.50
9971;DHT22;5026;51.494;11.974;2022-08-21T15:54:01;24.00;69.50
9971;DHT22;5026;51.494;11.974;2022-08-21T15:56:34;24.00;69.60
9971;DHT22;5026;51.494;11.974;2022-08-21T15:59:04;24.10;69.70
9971;DHT22;5026;51.494;11.974;2022-08-21T16:01:32;24.10;70.10
9971;DHT22;5026;51.494;11.974;2022-08-21T16:04:00;24.10;69.80
9971;DHT22;5026;51.494;11.974;2022-08-21T16:06:28;24.20;70.30
9971;DHT22;5026;51.494;11.974;2022-08-21T16:08:55;24.20;70.00
9971;DHT22;5026;51.494;11.974;2022-08-21T16:11:22;24.20;69.40
9971;DHT22;5026;51.494;11.974;2022-08-21T16:13:50;24.30;69.70